createdAt,value
2022-10-02T00:03:37.234Z,0.17
2022-10-02T00:07:44.448Z,0.43
2022-10-02T00:11:51.998Z,0.30
2022-10-02T00:15:58.039Z,0.20
2022-10-02T00:20:02.303Z,0.10
2022-10-02T00:24:08.574Z,0.32
2022-10-02T00:28:24.213Z,0.28
2022-10-02T00:32:35.552Z,0.10
2022-10-02T00:36:49.501Z,0.10
2022-10-02T00:41:18.347Z,0.20
2022-10-02T00:45:50.712Z,0.10
2022-10-02T00:50:18.878Z,0.20
2022-10-02T00:54:46.717Z,0.10
2022-10-02T00:59:11.094Z,0.20
2022-10-02T01:03:22.136Z,0.10
2022-10-02T01:07:25.734Z,0.20
2022-10-02T01:11:30.848Z,0.20
2022-10-02T01:15:38.149Z,0.10
2022-10-02T01:19:44.730Z,0.30
2022-10-02T01:23:55.458Z,0.20
2022-10-02T01:28:00.386Z,0.22
2022-10-02T01:32:03.538Z,0.22
2022-10-02T01:36:07.730Z,0.13
2022-10-02T01:40:23.601Z,0.20
2022-10-02T01:44:28.799Z,0.30
2022-10-02T01:48:43.677Z,0.15
2022-10-02T01:52:56.400Z,0.30
2022-10-02T01:57:09.095Z,0.50
2022-10-02T02:01:24.163Z,0.28
2022-10-02T02:05:46.838Z,0.30
2022-10-02T02:10:01.592Z,0.25
2022-10-02T02:14:11.998Z,0.25
2022-10-02T02:18:23.313Z,0.30
2022-10-02T02:22:31.533Z,0.38
2022-10-02T02:26:35.906Z,0.10
2022-10-02T02:30:41.047Z,0.30
2022-10-02T02:34:51.553Z,0.28
2022-10-02T02:38:59.559Z,0.20
2022-10-02T02:43:08.592Z,0.43
2022-10-02T02:47:18.276Z,0.40
2022-10-02T02:51:25.169Z,0.30
2022-10-02T02:55:33.364Z,0.35
2022-10-02T02:59:38.934Z,0.50
2022-10-02T03:03:42.580Z,0.32
2022-10-02T03:07:51.637Z,0.40
2022-10-02T03:12:07.967Z,0.68
2022-10-02T03:16:23.905Z,0.57
2022-10-02T03:20:34.344Z,0.40
2022-10-02T03:24:46.330Z,0.70
2022-10-02T03:28:56.409Z,0.20
2022-10-02T03:33:01.602Z,0.40
2022-10-02T03:37:05.637Z,0.20
2022-10-02T03:41:10.810Z,0.38
2022-10-02T03:45:27.310Z,0.30
2022-10-02T03:49:37.153Z,0.43
2022-10-02T03:53:42.775Z,0.45
2022-10-02T03:57:48.443Z,0.73
2022-10-02T04:01:56.808Z,0.60
2022-10-02T04:06:05.403Z,0.47
2022-10-02T04:10:30.075Z,0.80
2022-10-02T04:14:39.777Z,0.50
2022-10-02T04:18:50.627Z,0.57
2022-10-02T04:22:58.488Z,0.47
2022-10-02T04:27:07.770Z,0.50
2022-10-02T04:31:14.701Z,1.38
2022-10-02T04:35:34.567Z,1.52
2022-10-02T04:40:00.098Z,1.38
2022-10-02T04:44:16.430Z,1.30
2022-10-02T04:48:40.507Z,1.05
2022-10-02T04:52:57.597Z,0.85
2022-10-02T04:57:23.906Z,0.80
2022-10-02T05:01:39.309Z,1.38
2022-10-02T05:06:12.261Z,0.50
2022-10-02T05:10:45.861Z,0.95
2022-10-02T05:15:11.855Z,0.88
2022-10-02T05:19:31.279Z,0.70
2022-10-02T05:23:50.382Z,0.55
2022-10-02T05:28:14.720Z,0.47
2022-10-02T05:32:35.362Z,0.50
2022-10-02T05:36:56.900Z,0.55
2022-10-02T05:41:09.569Z,0.70
2022-10-02T05:45:23.365Z,0.50
2022-10-02T05:49:34.313Z,0.63
2022-10-02T05:53:41.840Z,0.70
2022-10-02T05:57:52.080Z,0.80
2022-10-02T06:01:57.512Z,0.70
2022-10-02T06:06:07.954Z,0.47
2022-10-02T06:10:17.456Z,0.82
2022-10-02T06:14:28.329Z,0.93
2022-10-02T06:18:35.673Z,1.02
2022-10-02T06:22:45.485Z,0.50
2022-10-02T06:26:52.881Z,1.25
2022-10-02T06:31:03.089Z,0.38
2022-10-02T06:35:12.663Z,0.90
2022-10-02T06:39:48.574Z,0.70
2022-10-02T06:44:17.499Z,0.77
2022-10-02T06:48:27.698Z,0.85
2022-10-02T06:52:43.810Z,0.60
2022-10-02T06:57:04.453Z,0.50
2022-10-02T07:05:55.248Z,0.57
2022-10-02T07:10:22.482Z,0.52
2022-10-02T07:14:37.086Z,0.60
2022-10-02T07:18:53.496Z,0.50
2022-10-02T07:23:13.741Z,0.63
2022-10-02T07:27:23.562Z,0.47
2022-10-02T07:31:38.999Z,0.50
2022-10-02T07:35:52.428Z,0.70
2022-10-02T07:40:11.317Z,0.55
2022-10-02T07:44:29.012Z,0.50
2022-10-02T07:48:49.761Z,0.30
2022-10-02T07:53:01.466Z,0.28
2022-10-02T07:57:21.694Z,0.17
2022-10-02T08:01:28.689Z,0.60
2022-10-02T08:05:35.652Z,0.80
2022-10-02T08:09:42.800Z,0.70
2022-10-02T08:13:51.366Z,0.55
2022-10-02T08:18:10.842Z,1.35
2022-10-02T08:22:26.581Z,1.13
2022-10-02T08:26:36.013Z,0.73
2022-10-02T08:30:40.609Z,0.60
2022-10-02T08:34:44.934Z,0.38
2022-10-02T08:38:54.681Z,0.90
2022-10-02T08:43:27.024Z,0.70
2022-10-02T08:48:15.915Z,0.60
2022-10-02T08:53:09.140Z,0.90
2022-10-02T08:57:45.868Z,1.15
2022-10-02T09:02:27.767Z,1.48
2022-10-02T09:07:01.456Z,1.08
2022-10-02T09:11:37.464Z,1.10
2022-10-02T09:15:47.118Z,0.82
2022-10-02T09:20:07.360Z,0.73
2022-10-02T09:24:34.060Z,0.68
2022-10-02T09:29:14.301Z,0.30
2022-10-02T09:33:59.007Z,0.60
2022-10-02T09:38:39.259Z,0.40
2022-10-02T09:43:23.523Z,0.60
2022-10-02T09:48:14.333Z,0.52
2022-10-02T09:53:12.391Z,0.60
2022-10-02T09:58:02.757Z,0.30
2022-10-02T10:02:36.877Z,0.60
2022-10-02T10:07:24.807Z,0.30
2022-10-02T10:12:02.909Z,0.40
2022-10-02T10:17:06.376Z,0.30
2022-10-02T10:21:36.521Z,0.40
2022-10-02T10:25:52.247Z,0.30
2022-10-02T10:30:24.857Z,0.20
2022-10-02T10:34:54.118Z,0.43
2022-10-02T10:39:07.936Z,0.43
2022-10-02T10:43:58.406Z,0.43
2022-10-02T10:48:24.895Z,0.50
2022-10-02T10:52:47.316Z,0.30
2022-10-02T10:56:56.536Z,0.50
2022-10-02T11:01:14.333Z,0.38
2022-10-02T11:05:55.030Z,0.25
2022-10-02T11:10:22.356Z,0.52
2022-10-02T11:14:35.623Z,0.40
2022-10-02T11:19:03.985Z,0.50
2022-10-02T11:23:28.328Z,0.40
2022-10-02T11:27:59.188Z,0.40
2022-10-02T11:32:33.867Z,0.30
2022-10-02T11:36:58.766Z,0.30
2022-10-02T11:41:25.417Z,0.57
2022-10-02T11:46:16.683Z,0.35
2022-10-02T11:50:44.181Z,0.20
2022-10-02T11:55:01.157Z,0.17
2022-10-02T11:59:27.996Z,0.22
2022-10-02T12:03:39.132Z,0.20
2022-10-02T12:07:53.906Z,0.30
2022-10-02T12:12:08.005Z,0.20
2022-10-02T12:16:21.749Z,0.40
2022-10-02T12:20:56.266Z,0.50
2022-10-02T12:25:35.233Z,0.20
2022-10-02T12:29:52.621Z,0.35
2022-10-02T12:34:01.427Z,0.47
2022-10-02T12:38:18.342Z,0.38
2022-10-02T12:43:03.159Z,0.75
2022-10-02T12:47:50.163Z,0.38
2022-10-02T12:52:29.290Z,0.50
2022-10-02T12:56:59.025Z,0.50
2022-10-02T13:01:36.159Z,0.90
2022-10-02T13:06:24.078Z,0.70
2022-10-02T13:10:32.654Z,0.65
2022-10-02T13:14:56.885Z,0.57
2022-10-02T13:19:10.541Z,0.55
2022-10-02T13:23:26.547Z,0.50
2022-10-02T13:27:40.796Z,0.75
2022-10-02T13:31:59.658Z,0.50
2022-10-02T13:36:19.577Z,0.40
2022-10-02T13:40:31.658Z,0.47
2022-10-02T13:44:44.430Z,0.40
2022-10-02T13:49:00.169Z,0.50
2022-10-02T13:53:21.089Z,0.43
2022-10-02T13:57:44.425Z,1.10
2022-10-02T14:02:31.709Z,0.20
2022-10-02T14:06:40.557Z,0.95
2022-10-02T14:11:00.683Z,0.52
2022-10-02T14:15:32.318Z,0.80
2022-10-02T14:20:18.837Z,0.60
2022-10-02T14:24:57.976Z,0.47
2022-10-02T14:29:14.070Z,0.45
2022-10-02T14:33:30.853Z,0.30
2022-10-02T14:38:07.914Z,0.68
2022-10-02T14:42:32.653Z,0.50
2022-10-02T14:46:53.317Z,0.52
2022-10-02T14:51:16.395Z,0.50
2022-10-02T15:00:10.863Z,0.47
2022-10-02T15:04:31.866Z,0.63
2022-10-02T15:08:41.941Z,0.50
2022-10-02T15:12:55.686Z,0.70
2022-10-02T15:17:23.293Z,0.80
2022-10-02T15:21:30.967Z,0.55
2022-10-02T15:26:10.177Z,0.70
2022-10-02T15:30:19.627Z,0.57
2022-10-02T15:34:34.953Z,0.60
2022-10-02T15:39:14.171Z,0.80
2022-10-02T15:43:39.815Z,0.90
2022-10-02T15:47:58.857Z,0.55
2022-10-02T15:52:11.392Z,0.77
2022-10-02T15:56:40.056Z,0.52
2022-10-02T16:01:09.363Z,1.27
2022-10-02T16:05:29.969Z,0.70
2022-10-02T16:09:47.200Z,1.15
2022-10-02T16:14:02.827Z,1.00
2022-10-02T16:18:21.281Z,1.30
2022-10-02T16:22:44.009Z,0.88
2022-10-02T16:27:21.439Z,0.93
2022-10-02T16:31:45.918Z,0.70
2022-10-02T16:36:04.268Z,0.93
2022-10-02T16:40:27.444Z,0.55
2022-10-02T16:45:06.800Z,0.40
2022-10-02T16:49:24.285Z,0.85
2022-10-02T16:53:33.874Z,0.50
2022-10-02T16:57:55.362Z,0.55
2022-10-02T17:02:17.677Z,0.30
2022-10-02T17:06:33.485Z,0.43
2022-10-02T17:11:06.274Z,0.57
2022-10-02T17:15:19.359Z,0.43
2022-10-02T17:19:28.192Z,0.47
2022-10-02T17:23:42.488Z,0.50
2022-10-02T17:27:58.745Z,0.30
2022-10-02T17:32:03.110Z,0.20
2022-10-02T17:36:19.525Z,0.40
2022-10-02T17:40:27.767Z,0.32
2022-10-02T17:44:45.529Z,0.45
2022-10-02T17:48:57.573Z,0.52
2022-10-02T17:53:28.762Z,0.40
2022-10-02T17:57:54.461Z,0.30
2022-10-02T18:02:11.918Z,0.38
2022-10-02T18:06:28.436Z,0.30
2022-10-02T18:10:42.401Z,0.50
2022-10-02T18:15:02.074Z,0.77
2022-10-02T18:19:39.899Z,0.40
2022-10-02T18:24:01.228Z,0.63
2022-10-02T18:28:17.627Z,0.40
2022-10-02T18:32:37.282Z,0.45
2022-10-02T18:36:56.741Z,0.55
2022-10-02T18:41:21.047Z,0.25
2022-10-02T18:45:45.196Z,0.30
2022-10-02T18:50:08.308Z,0.28
2022-10-02T18:58:43.354Z,0.20
2022-10-02T19:07:05.090Z,0.08
2022-10-02T19:11:27.281Z,0.00
2022-10-02T19:15:33.459Z,0.27
2022-10-02T19:19:37.091Z,0.30
2022-10-02T19:23:47.504Z,0.13
2022-10-02T19:27:55.590Z,0.10
2022-10-02T19:32:01.631Z,0.10
2022-10-02T19:36:07.259Z,0.20
2022-10-02T19:40:18.478Z,0.35
2022-10-02T19:44:29.088Z,0.40
2022-10-02T19:48:35.045Z,0.15
2022-10-02T19:52:46.888Z,0.13
2022-10-02T19:56:54.163Z,0.25
2022-10-02T20:00:59.654Z,0.43
2022-10-02T20:05:07.792Z,0.10
2022-10-02T20:09:19.255Z,0.20
2022-10-02T20:13:29.338Z,0.52
2022-10-02T20:17:35.386Z,0.22
2022-10-02T20:21:42.755Z,0.20
2022-10-02T20:25:51.832Z,0.40
2022-10-02T20:30:01.767Z,0.20
2022-10-02T20:34:13.334Z,0.30
2022-10-02T20:38:24.367Z,0.10
2022-10-02T20:42:35.654Z,0.10
2022-10-02T20:47:37.476Z,0.28
2022-10-02T20:52:13.442Z,0.30
2022-10-02T20:56:40.617Z,0.17
2022-10-02T21:01:01.206Z,0.20
2022-10-02T21:05:24.578Z,0.00
2022-10-02T21:09:53.735Z,0.73
2022-10-02T21:14:38.897Z,0.30
2022-10-02T21:19:06.875Z,0.20
2022-10-02T21:23:37.853Z,0.20
2022-10-02T21:28:32.669Z,0.10
2022-10-02T21:32:47.621Z,0.30
2022-10-02T21:36:58.715Z,0.70
2022-10-02T21:41:29.798Z,0.40
2022-10-02T21:46:26.560Z,0.30
2022-10-02T21:51:15.783Z,0.35
2022-10-02T21:55:54.538Z,0.20
2022-10-02T22:00:22.362Z,0.30
2022-10-02T22:04:47.626Z,0.30
2022-10-02T22:09:05.148Z,0.28
2022-10-02T22:13:25.468Z,0.50
2022-10-02T22:17:43.449Z,0.30
2022-10-02T22:22:01.875Z,0.30
2022-10-02T22:26:31.706Z,0.50
2022-10-02T22:30:44.834Z,0.25
2022-10-02T22:34:56.639Z,0.30
2022-10-02T22:39:06.929Z,0.40
2022-10-02T22:43:20.848Z,0.43
2022-10-02T22:47:31.686Z,0.40
2022-10-02T22:51:41.770Z,0.40
2022-10-02T22:55:50.579Z,0.40
2022-10-02T23:00:00.084Z,0.50
2022-10-02T23:04:10.078Z,0.50
2022-10-02T23:08:22.615Z,0.80
2022-10-02T23:12:38.548Z,0.60
2022-10-02T23:16:49.482Z,1.00
2022-10-02T23:21:03.304Z,1.00
2022-10-02T23:25:19.961Z,0.85
2022-10-02T23:29:33.111Z,0.88
2022-10-02T23:33:52.207Z,1.08
2022-10-02T23:38:00.591Z,0.98
2022-10-02T23:42:08.535Z,1.23
2022-10-02T23:46:18.536Z,1.60
2022-10-02T23:50:26.290Z,1.63
2022-10-02T23:54:46.812Z,0.80
2022-10-02T23:59:09.736Z,1.08
